Карточка аэропорта UAKK

Внимание!
Информация на этой странице в стадии наполнения.
Если вы не увидели какой-то информации, или заметили неточность - пожалуйста сообщите нам!
Спасибо!
Команда RU-STAFF
Название аэропортаКараганда
Название аэропорта (англ.)Karaganda
Превышение1768 ft. (538.9 m.)
Координаты49°40.302', 73°20.118'
Высота перехода10000
Эшелон переходаby ATC
Коды ответчика0630-0637, 7220-7227
Зона ОрВДАстана РПИ (UACN)
Данные METARUAKK 271230Z 35007MPS 9999 BKN033CB 16/11 Q1010 NOSIG RMK QFE711/0948
Проноз погоды (TAF)UAKK 271101Z 2712/2812 32007MPS 9999 SCT030CB BKN080 TX10/2808Z TN04/2801Z TEMPO 2712/2718 VRB16MPS 3100 -TSRA SQ BKN020CB TEMPO 2718/2724 36012MPS 3100 -SHRA BR BKN015CB BECMG 2800/2802 SCT040 BKN100 TEMPO 2800/2806 3100 BR BKN011 BKN020 TEMPO 2806/2812 26007MPS
NOTAMshow/hide NOTAM
AWOS   TABLE

Информация о ВПП

ВПП Длина ВПП (м.) Покрытие Курс ВПП Частота ILS
053601Железобетон50109.9
233601Железобетон230111.7

Диспетчерские позиции




Спутниковое изображение